createdAt,value
2018-10-09T00:01:54.216Z,99.90
2018-10-09T00:04:24.483Z,99.90
2018-10-09T00:06:54.863Z,99.90
2018-10-09T00:09:25.322Z,99.90
2018-10-09T00:11:55.491Z,99.90
2018-10-09T00:14:26.158Z,99.90
2018-10-09T00:16:56.305Z,99.90
2018-10-09T00:19:26.707Z,99.90
2018-10-09T00:21:57.117Z,99.90
2018-10-09T00:24:27.176Z,99.90
2018-10-09T00:26:57.341Z,99.90
2018-10-09T00:29:27.422Z,99.90
2018-10-09T00:31:57.553Z,99.90
2018-10-09T00:34:27.607Z,99.90
2018-10-09T00:36:57.568Z,99.90
2018-10-09T00:39:28.263Z,99.90
2018-10-09T00:41:59.647Z,99.90
2018-10-09T00:44:30.612Z,99.90
2018-10-09T00:47:01.297Z,99.90
2018-10-09T00:49:31.360Z,99.90
2018-10-09T00:52:01.443Z,99.90
2018-10-09T00:54:31.632Z,99.90
2018-10-09T00:57:01.847Z,99.90
2018-10-09T00:59:32.486Z,99.90
2018-10-09T01:02:02.688Z,99.90
2018-10-09T01:04:32.981Z,99.90
2018-10-09T01:07:03.092Z,99.90
2018-10-09T01:09:33.219Z,99.90
2018-10-09T01:12:03.519Z,99.90
2018-10-09T01:14:34.084Z,99.90
2018-10-09T01:17:04.373Z,99.90
2018-10-09T01:19:35.028Z,99.90
2018-10-09T01:22:05.550Z,99.90
2018-10-09T01:24:36.181Z,99.90
2018-10-09T01:27:06.161Z,99.90
2018-10-09T01:29:36.673Z,99.90
2018-10-09T01:32:07.303Z,99.90
2018-10-09T01:34:38.262Z,99.90
2018-10-09T01:37:08.369Z,99.90
2018-10-09T01:39:38.455Z,99.90
2018-10-09T01:42:09.383Z,99.90
2018-10-09T01:44:39.506Z,99.90
2018-10-09T01:47:09.631Z,99.90
2018-10-09T01:49:40.319Z,99.90
2018-10-09T01:52:10.469Z,99.90
2018-10-09T01:54:41.477Z,99.90
2018-10-09T01:57:11.710Z,99.90
2018-10-09T01:59:42.421Z,99.90
2018-10-09T02:02:12.921Z,99.90
2018-10-09T02:04:43.024Z,99.90
2018-10-09T02:07:13.917Z,99.90
2018-10-09T02:09:44.736Z,99.90
2018-10-09T02:12:15.066Z,99.90
2018-10-09T02:14:45.714Z,99.90
2018-10-09T02:17:15.965Z,99.90
2018-10-09T02:19:46.571Z,99.90
2018-10-09T02:22:16.708Z,99.90
2018-10-09T02:24:47.094Z,99.90
2018-10-09T02:27:17.223Z,99.90
2018-10-09T02:29:47.540Z,99.90
2018-10-09T02:32:17.855Z,99.90
2018-10-09T02:34:48.125Z,99.90
2018-10-09T02:37:18.235Z,99.90
2018-10-09T02:39:48.367Z,99.90
2018-10-09T02:42:18.440Z,99.90
2018-10-09T02:44:48.490Z,99.90
2018-10-09T02:47:18.607Z,99.90
2018-10-09T02:49:48.974Z,99.90
2018-10-09T02:52:19.405Z,99.90
2018-10-09T02:54:49.612Z,99.90
2018-10-09T02:57:19.803Z,99.90
2018-10-09T02:59:49.926Z,99.90
2018-10-09T03:02:20.042Z,99.90
2018-10-09T03:04:50.158Z,99.90
2018-10-09T03:07:20.321Z,99.90
2018-10-09T03:09:50.874Z,99.90
2018-10-09T03:12:21.334Z,99.90
2018-10-09T03:14:51.418Z,99.90
2018-10-09T03:17:21.512Z,99.90
2018-10-09T03:19:51.630Z,99.90
2018-10-09T03:22:21.923Z,99.90
2018-10-09T03:24:52.811Z,99.90
2018-10-09T03:27:22.863Z,99.90
2018-10-09T03:29:53.016Z,99.90
2018-10-09T03:32:23.682Z,99.90
2018-10-09T03:34:53.923Z,99.90
2018-10-09T03:37:23.982Z,99.90
2018-10-09T03:39:54.124Z,99.90
2018-10-09T03:42:24.833Z,99.90
2018-10-09T03:44:54.920Z,99.90
2018-10-09T03:47:25.115Z,99.90
2018-10-09T03:49:55.316Z,99.90
2018-10-09T03:52:25.454Z,99.90
2018-10-09T03:54:56.294Z,99.90
2018-10-09T03:57:27.003Z,99.90
2018-10-09T03:59:57.353Z,99.90
2018-10-09T04:02:28.186Z,99.90
2018-10-09T04:04:58.379Z,99.90
2018-10-09T04:07:28.453Z,99.90
2018-10-09T04:09:58.582Z,99.90
2018-10-09T04:12:28.772Z,99.90
2018-10-09T04:14:59.051Z,99.90
2018-10-09T04:17:29.156Z,99.90
2018-10-09T04:19:59.185Z,99.90
2018-10-09T04:22:29.327Z,99.90
2018-10-09T04:24:59.876Z,99.90
2018-10-09T04:27:29.955Z,99.90
2018-10-09T04:30:00.621Z,99.90
2018-10-09T04:32:31.086Z,99.90
2018-10-09T04:35:01.244Z,99.90
2018-10-09T04:37:32.006Z,99.90
2018-10-09T04:40:02.162Z,99.90
2018-10-09T04:42:32.394Z,99.90
2018-10-09T04:45:02.871Z,99.90
2018-10-09T04:47:33.121Z,99.90
2018-10-09T04:50:03.426Z,99.90
2018-10-09T04:52:33.771Z,99.90
2018-10-09T04:55:04.018Z,99.90
2018-10-09T04:57:34.041Z,99.90
2018-10-09T05:00:04.392Z,99.90
2018-10-09T05:02:34.434Z,99.90
2018-10-09T05:05:04.777Z,99.90
2018-10-09T05:07:34.799Z,99.90
2018-10-09T05:10:04.853Z,99.90
2018-10-09T05:12:34.980Z,99.90
2018-10-09T05:15:05.049Z,99.90
2018-10-09T05:17:37.569Z,99.90
2018-10-09T05:20:09.925Z,99.90
2018-10-09T05:22:40.331Z,99.90
2018-10-09T05:25:10.423Z,99.90
2018-10-09T05:27:40.525Z,99.90
2018-10-09T05:30:10.752Z,99.90
2018-10-09T05:32:40.813Z,99.90
2018-10-09T05:35:10.935Z,99.90
2018-10-09T05:37:41.513Z,99.90
2018-10-09T05:40:11.983Z,99.90
2018-10-09T05:42:42.136Z,99.90
2018-10-09T05:45:12.235Z,99.90
2018-10-09T05:47:42.385Z,99.90
2018-10-09T05:50:12.417Z,99.90
2018-10-09T05:52:42.564Z,99.90
2018-10-09T05:55:13.793Z,99.90
2018-10-09T05:57:43.902Z,99.90
2018-10-09T06:00:14.023Z,99.90
2018-10-09T06:02:45.395Z,99.90
2018-10-09T06:05:15.618Z,99.90
2018-10-09T06:07:45.827Z,99.90
2018-10-09T06:10:16.033Z,99.90
2018-10-09T06:12:46.415Z,99.90
2018-10-09T06:15:17.885Z,99.90
2018-10-09T06:17:47.997Z,99.90
2018-10-09T06:20:18.401Z,99.90
2018-10-09T06:22:48.539Z,99.90
2018-10-09T06:25:18.766Z,99.90
2018-10-09T06:27:49.088Z,99.90
2018-10-09T06:30:19.762Z,99.90
2018-10-09T06:32:50.185Z,99.90
2018-10-09T06:35:20.847Z,99.90
2018-10-09T06:37:51.066Z,99.90
2018-10-09T06:40:21.874Z,99.90
2018-10-09T06:42:51.983Z,99.90
2018-10-09T06:45:22.226Z,99.90
2018-10-09T06:47:52.697Z,99.90
2018-10-09T06:50:23.406Z,99.90
2018-10-09T06:52:53.916Z,99.90
2018-10-09T06:55:24.015Z,99.90
2018-10-09T06:57:54.068Z,99.90
2018-10-09T07:00:24.502Z,99.90
2018-10-09T07:02:54.723Z,99.90
2018-10-09T07:05:24.713Z,99.90
2018-10-09T07:07:54.789Z,99.90
2018-10-09T07:10:24.856Z,99.90
2018-10-09T07:12:55.471Z,99.90
2018-10-09T07:15:25.529Z,99.90
2018-10-09T07:17:55.585Z,99.90
2018-10-09T07:20:25.788Z,99.90
2018-10-09T07:22:55.850Z,99.90
2018-10-09T07:25:26.145Z,99.90
2018-10-09T07:27:56.664Z,99.90
2018-10-09T07:30:26.939Z,99.90
2018-10-09T07:32:57.247Z,99.90
2018-10-09T07:35:27.981Z,99.90
2018-10-09T07:37:58.636Z,99.90
2018-10-09T07:40:28.843Z,99.90
2018-10-09T07:42:59.590Z,99.90
2018-10-09T07:45:29.802Z,99.90
2018-10-09T07:48:00.760Z,99.90
2018-10-09T07:50:30.895Z,99.90
2018-10-09T07:53:01.551Z,99.90
2018-10-09T07:55:31.605Z,99.90
2018-10-09T07:58:01.631Z,99.90
2018-10-09T08:00:32.780Z,99.90
2018-10-09T08:03:03.195Z,99.90
2018-10-09T08:05:33.712Z,99.90
2018-10-09T08:08:03.867Z,99.90
2018-10-09T08:10:33.872Z,99.90
2018-10-09T08:13:03.932Z,99.90
2018-10-09T08:15:34.051Z,99.90
2018-10-09T08:18:04.147Z,99.90
2018-10-09T08:20:34.634Z,99.90
2018-10-09T08:23:04.774Z,99.90
2018-10-09T08:25:34.774Z,99.90
2018-10-09T08:28:05.002Z,99.90
2018-10-09T08:30:35.067Z,99.90
2018-10-09T08:33:05.079Z,99.90
2018-10-09T08:35:35.234Z,99.90
2018-10-09T08:38:05.789Z,99.90
2018-10-09T08:40:35.913Z,99.90
2018-10-09T08:43:06.229Z,99.90
2018-10-09T08:45:36.341Z,99.90
2018-10-09T08:48:06.363Z,99.90
2018-10-09T08:50:36.506Z,99.90
2018-10-09T08:53:06.737Z,99.90
2018-10-09T08:55:37.351Z,99.90
2018-10-09T08:58:07.861Z,99.90
2018-10-09T09:00:37.942Z,99.90
2018-10-09T09:03:08.437Z,99.90
2018-10-09T09:05:38.514Z,99.90
2018-10-09T09:08:08.848Z,99.90
2018-10-09T09:10:39.478Z,99.90
2018-10-09T09:13:10.621Z,99.90
2018-10-09T09:15:41.299Z,99.90
2018-10-09T09:18:12.910Z,99.90
2018-10-09T09:20:43.568Z,99.90
2018-10-09T09:23:14.078Z,99.90
2018-10-09T09:25:44.801Z,99.90
2018-10-09T09:28:15.129Z,99.30
2018-10-09T09:30:45.215Z,98.70
2018-10-09T09:33:15.652Z,97.80
2018-10-09T09:35:45.599Z,94.90
2018-10-09T09:38:16.478Z,93.60
2018-10-09T09:40:46.626Z,92.70
2018-10-09T09:43:17.378Z,92.50
2018-10-09T09:45:47.940Z,91.90
2018-10-09T09:48:22.273Z,91.30
2018-10-09T09:50:52.927Z,90.20
2018-10-09T09:53:23.146Z,89.60
2018-10-09T09:55:53.368Z,88.60
2018-10-09T09:58:23.539Z,86.20
2018-10-09T10:00:56.369Z,84.50
2018-10-09T10:03:27.445Z,83.30
2018-10-09T10:05:57.474Z,81.90
2018-10-09T10:08:27.560Z,80.00
2018-10-09T10:10:58.033Z,78.60
2018-10-09T10:13:28.118Z,79.70
2018-10-09T10:15:58.656Z,79.80
2018-10-09T10:18:29.233Z,79.00
2018-10-09T10:20:59.928Z,78.40
2018-10-09T10:23:30.456Z,78.30
2018-10-09T10:26:01.507Z,77.40
2018-10-09T10:28:32.026Z,77.20
2018-10-09T10:31:02.245Z,77.40
2018-10-09T10:33:32.610Z,77.20
2018-10-09T10:36:02.702Z,76.50
2018-10-09T10:38:32.990Z,75.50
2018-10-09T10:41:03.947Z,74.90
2018-10-09T10:43:34.827Z,75.20
2018-10-09T10:46:04.932Z,75.20
2018-10-09T10:48:35.382Z,74.80
2018-10-09T10:51:05.854Z,74.60
2018-10-09T10:53:35.948Z,73.50
2018-10-09T10:56:06.116Z,73.30
2018-10-09T10:58:36.189Z,73.20
2018-10-09T11:01:06.194Z,72.10
2018-10-09T11:03:36.347Z,70.70
2018-10-09T11:06:06.486Z,69.20
2018-10-09T11:08:36.682Z,68.20
2018-10-09T11:11:07.112Z,67.00
2018-10-09T11:13:37.271Z,65.40
2018-10-09T11:16:07.676Z,64.00
2018-10-09T11:18:38.051Z,62.90
2018-10-09T11:21:08.701Z,63.00
2018-10-09T11:23:39.061Z,62.80
2018-10-09T11:26:09.129Z,63.10
2018-10-09T11:28:39.204Z,62.00
2018-10-09T11:31:09.302Z,61.40
2018-10-09T11:33:39.412Z,60.90
2018-10-09T11:36:09.565Z,61.20
2018-10-09T11:38:39.715Z,60.70
2018-10-09T11:41:09.875Z,60.40
2018-10-09T11:43:40.000Z,60.50
2018-10-09T11:46:10.137Z,59.80
2018-10-09T11:48:41.008Z,59.30
2018-10-09T11:51:11.147Z,59.60
2018-10-09T11:53:41.210Z,59.70
2018-10-09T11:56:11.247Z,59.80
2018-10-09T11:58:41.531Z,60.40
2018-10-09T12:01:11.977Z,59.70
2018-10-09T12:03:42.411Z,59.80
2018-10-09T12:06:12.487Z,59.90
2018-10-09T12:08:42.726Z,61.00
2018-10-09T12:11:13.318Z,60.80
2018-10-09T12:13:43.382Z,60.80
2018-10-09T12:16:13.405Z,60.90
2018-10-09T12:18:43.811Z,61.40
2018-10-09T12:21:14.442Z,61.20
2018-10-09T12:23:44.591Z,61.80
2018-10-09T12:26:14.642Z,61.20
2018-10-09T12:28:44.681Z,60.80
2018-10-09T12:31:14.803Z,60.00
2018-10-09T12:33:44.964Z,60.30
2018-10-09T12:36:15.484Z,59.90
2018-10-09T12:38:45.534Z,59.40
2018-10-09T12:41:15.621Z,59.20
2018-10-09T12:43:45.680Z,58.40
2018-10-09T12:46:16.053Z,59.10
2018-10-09T12:48:46.213Z,59.60
2018-10-09T12:51:16.314Z,59.50
2018-10-09T12:53:46.368Z,59.40
2018-10-09T12:56:16.417Z,60.80
2018-10-09T12:58:46.488Z,62.00
2018-10-09T13:01:16.510Z,63.10
2018-10-09T13:03:46.730Z,63.30
2018-10-09T13:06:16.969Z,62.60
2018-10-09T13:08:47.031Z,62.40
2018-10-09T13:11:17.074Z,64.10
2018-10-09T13:13:47.667Z,63.10
2018-10-09T13:16:18.042Z,63.20
2018-10-09T13:18:48.168Z,63.10
2018-10-09T13:21:18.785Z,62.90
2018-10-09T13:23:48.669Z,63.10
2018-10-09T13:26:18.936Z,62.50
2018-10-09T13:28:48.995Z,62.90
2018-10-09T13:31:19.100Z,62.90
2018-10-09T13:33:49.168Z,61.40
2018-10-09T13:36:19.599Z,61.10
2018-10-09T13:38:49.708Z,60.90
2018-10-09T13:41:19.936Z,61.10
2018-10-09T13:43:50.112Z,60.50
2018-10-09T13:46:20.151Z,59.50
2018-10-09T13:48:50.269Z,59.20
2018-10-09T13:51:20.440Z,59.40
2018-10-09T13:53:50.867Z,58.50
2018-10-09T13:56:21.305Z,58.10
2018-10-09T13:58:51.413Z,58.60
2018-10-09T14:01:21.472Z,58.60
2018-10-09T14:03:51.610Z,57.90
2018-10-09T14:06:21.940Z,57.60
2018-10-09T14:08:52.388Z,57.00
2018-10-09T14:11:22.436Z,57.00
2018-10-09T14:13:52.588Z,57.30
2018-10-09T14:16:22.796Z,57.10
2018-10-09T14:18:52.888Z,57.00
2018-10-09T14:21:23.124Z,56.50
2018-10-09T14:23:53.307Z,55.90
2018-10-09T14:26:23.684Z,55.30
2018-10-09T14:28:53.780Z,54.90
2018-10-09T14:31:23.818Z,55.40
2018-10-09T14:33:54.023Z,56.00
2018-10-09T14:36:24.285Z,55.80
2018-10-09T14:38:54.331Z,56.40
2018-10-09T14:41:24.408Z,56.90
2018-10-09T14:43:54.542Z,57.20
2018-10-09T14:46:24.554Z,57.70
2018-10-09T14:48:54.679Z,58.20
2018-10-09T14:51:24.808Z,58.60
2018-10-09T14:53:55.395Z,58.60
2018-10-09T14:56:25.547Z,57.50
2018-10-09T14:58:55.598Z,57.00
2018-10-09T15:01:25.678Z,56.40
2018-10-09T15:03:56.075Z,55.90
2018-10-09T15:06:26.207Z,55.50
2018-10-09T15:08:56.373Z,55.00
2018-10-09T15:11:26.447Z,55.40
2018-10-09T15:13:56.583Z,56.10
2018-10-09T15:16:26.712Z,57.20
2018-10-09T15:18:56.816Z,57.80
2018-10-09T15:21:27.004Z,58.30
2018-10-09T15:23:57.219Z,57.90
2018-10-09T15:26:27.586Z,58.60
2018-10-09T15:28:57.960Z,59.20
2018-10-09T15:31:28.099Z,60.30
2018-10-09T15:33:58.249Z,61.00
2018-10-09T15:36:29.691Z,61.80
2018-10-09T15:38:59.809Z,62.10
2018-10-09T15:41:30.538Z,62.40
2018-10-09T15:44:00.960Z,62.70
2018-10-09T15:46:31.067Z,63.00
2018-10-09T15:49:01.157Z,63.10
2018-10-09T15:51:32.038Z,63.40
2018-10-09T15:54:02.482Z,63.90
2018-10-09T15:56:32.709Z,64.10
2018-10-09T15:59:02.913Z,64.80
2018-10-09T16:01:33.252Z,65.20
2018-10-09T16:04:03.392Z,65.80
2018-10-09T16:06:33.773Z,66.30
2018-10-09T16:09:04.640Z,66.50
2018-10-09T16:11:34.947Z,67.10
2018-10-09T16:14:05.360Z,67.30
2018-10-09T16:16:35.521Z,67.10
2018-10-09T16:19:05.584Z,67.00
2018-10-09T16:21:35.723Z,67.70
2018-10-09T16:24:06.322Z,67.90
2018-10-09T16:26:36.662Z,68.20
2018-10-09T16:29:07.297Z,69.00
2018-10-09T16:31:37.725Z,69.10
2018-10-09T16:34:07.875Z,69.80
2018-10-09T16:36:37.961Z,70.30
2018-10-09T16:39:11.794Z,71.30
2018-10-09T16:41:42.299Z,72.20
2018-10-09T16:44:12.916Z,73.30
2018-10-09T16:46:43.158Z,74.20
2018-10-09T16:49:13.387Z,75.10
2018-10-09T16:51:43.480Z,76.00
2018-10-09T16:54:14.014Z,76.70
2018-10-09T16:56:44.068Z,77.60
2018-10-09T16:59:14.185Z,78.50
2018-10-09T17:01:44.261Z,79.50
2018-10-09T17:04:14.427Z,80.60
2018-10-09T17:06:44.563Z,81.50
2018-10-09T17:09:14.718Z,82.60
2018-10-09T17:11:44.857Z,84.10
2018-10-09T17:14:15.393Z,85.50
2018-10-09T17:16:45.756Z,88.20
2018-10-09T17:19:16.131Z,90.50
2018-10-09T17:21:46.421Z,91.80
2018-10-09T17:24:16.692Z,93.30
2018-10-09T17:26:46.926Z,95.40
2018-10-09T17:29:17.016Z,97.10
2018-10-09T17:31:47.465Z,99.90
2018-10-09T17:34:17.603Z,99.90
2018-10-09T17:36:47.660Z,99.90
2018-10-09T17:39:17.896Z,99.90
2018-10-09T17:41:47.873Z,99.90
2018-10-09T17:44:18.017Z,99.90
2018-10-09T17:46:48.227Z,99.90
2018-10-09T17:49:18.247Z,99.90
2018-10-09T17:51:48.442Z,99.90
2018-10-09T17:54:18.837Z,99.90
2018-10-09T17:56:49.095Z,99.90
2018-10-09T17:59:19.230Z,99.90
2018-10-09T18:01:49.370Z,99.90
2018-10-09T18:04:19.992Z,99.90
2018-10-09T18:06:50.113Z,99.90
2018-10-09T18:09:20.357Z,99.90
2018-10-09T18:11:50.431Z,99.90
2018-10-09T18:14:20.505Z,99.90
2018-10-09T18:16:50.921Z,99.90
2018-10-09T18:19:21.066Z,99.90
2018-10-09T18:21:51.197Z,99.90
2018-10-09T18:24:21.266Z,99.90
2018-10-09T18:26:51.460Z,99.90
2018-10-09T18:29:21.691Z,99.90
2018-10-09T18:31:51.926Z,99.90
2018-10-09T18:34:22.081Z,99.90
2018-10-09T18:36:52.355Z,99.90
2018-10-09T18:39:22.805Z,99.90
2018-10-09T18:41:53.176Z,99.90
2018-10-09T18:44:23.286Z,99.90
2018-10-09T18:46:53.693Z,99.90
2018-10-09T18:49:23.718Z,99.90
2018-10-09T18:51:53.918Z,99.90
2018-10-09T18:54:24.064Z,99.90
2018-10-09T18:56:54.167Z,99.90
2018-10-09T18:59:24.544Z,99.90
2018-10-09T19:01:54.652Z,99.90
2018-10-09T19:04:24.929Z,99.90
2018-10-09T19:06:55.063Z,99.90
2018-10-09T19:09:25.196Z,99.90
2018-10-09T19:11:55.381Z,99.90
2018-10-09T19:14:25.455Z,99.90
2018-10-09T19:16:55.598Z,99.90
2018-10-09T19:19:25.744Z,99.90
2018-10-09T19:21:56.275Z,99.90
2018-10-09T19:24:26.388Z,99.90
2018-10-09T19:26:56.491Z,99.90
2018-10-09T19:29:26.658Z,99.90
2018-10-09T19:31:56.813Z,99.90
2018-10-09T19:34:26.966Z,99.90
2018-10-09T19:36:57.133Z,99.90
2018-10-09T19:39:28.421Z,99.90
2018-10-09T19:41:58.679Z,99.90
2018-10-09T19:44:28.824Z,99.90
2018-10-09T19:46:59.516Z,99.90
2018-10-09T19:49:29.900Z,99.90
2018-10-09T19:52:00.071Z,99.90
2018-10-09T19:54:30.160Z,99.90
2018-10-09T19:57:00.184Z,99.90
2018-10-09T19:59:30.550Z,99.90
2018-10-09T20:02:00.676Z,99.90
2018-10-09T20:04:31.380Z,99.90
2018-10-09T20:07:02.378Z,99.90
2018-10-09T20:09:32.711Z,99.90
2018-10-09T20:12:03.055Z,99.90
2018-10-09T20:14:33.375Z,99.90
2018-10-09T20:17:03.517Z,99.90
2018-10-09T20:19:33.819Z,99.90
2018-10-09T20:22:03.956Z,99.90
2018-10-09T20:24:34.443Z,99.90
2018-10-09T20:27:05.099Z,99.90
2018-10-09T20:29:35.390Z,99.90
2018-10-09T20:32:05.703Z,99.90
2018-10-09T20:34:35.929Z,99.90
2018-10-09T20:37:06.471Z,99.90
2018-10-09T20:39:36.653Z,99.90
2018-10-09T20:42:07.260Z,99.90
2018-10-09T20:44:37.526Z,99.90
2018-10-09T20:47:07.906Z,99.90
2018-10-09T20:49:37.941Z,99.90
2018-10-09T20:52:08.206Z,99.90
2018-10-09T20:54:38.346Z,99.90
2018-10-09T20:57:08.433Z,99.90
2018-10-09T20:59:39.101Z,99.90
2018-10-09T21:02:09.200Z,99.90
2018-10-09T21:04:39.405Z,99.90
2018-10-09T21:07:09.481Z,99.90
2018-10-09T21:09:39.752Z,99.90
2018-10-09T21:12:09.899Z,99.90
2018-10-09T21:14:40.243Z,99.90
2018-10-09T21:17:10.301Z,99.90
2018-10-09T21:19:40.746Z,99.90
2018-10-09T21:22:10.793Z,99.90
2018-10-09T21:24:41.380Z,99.90
2018-10-09T21:27:11.560Z,99.90
2018-10-09T21:29:42.314Z,99.90
2018-10-09T21:32:13.133Z,99.90
2018-10-09T21:34:43.183Z,99.90
2018-10-09T21:37:13.592Z,99.90
2018-10-09T21:39:43.801Z,99.90
2018-10-09T21:42:14.425Z,99.90
2018-10-09T21:44:44.604Z,99.90
2018-10-09T21:47:14.745Z,99.90
2018-10-09T21:49:45.080Z,99.90
2018-10-09T21:52:16.078Z,99.90
2018-10-09T21:54:46.210Z,99.90
2018-10-09T21:57:16.340Z,99.90
2018-10-09T21:59:46.427Z,99.90
2018-10-09T22:02:16.506Z,99.90
2018-10-09T22:04:46.698Z,99.90
2018-10-09T22:07:18.760Z,99.90
2018-10-09T22:09:50.039Z,99.90
2018-10-09T22:12:20.460Z,99.90
2018-10-09T22:14:50.625Z,99.90
2018-10-09T22:17:21.199Z,99.90
2018-10-09T22:19:51.513Z,99.90
2018-10-09T22:22:21.654Z,99.90
2018-10-09T22:24:51.700Z,99.90
2018-10-09T22:27:22.310Z,99.90
2018-10-09T22:29:52.787Z,99.90
2018-10-09T22:32:23.870Z,99.90
2018-10-09T22:34:54.102Z,99.90
2018-10-09T22:37:24.255Z,99.90
2018-10-09T22:39:54.446Z,99.90
2018-10-09T22:42:24.589Z,99.90
2018-10-09T22:44:54.722Z,99.90
2018-10-09T22:47:25.127Z,99.90
2018-10-09T22:49:55.301Z,99.90
2018-10-09T22:52:25.542Z,99.90
2018-10-09T22:54:55.501Z,99.90
2018-10-09T22:57:25.651Z,99.90
2018-10-09T22:59:57.492Z,99.90
2018-10-09T23:02:27.764Z,99.90
2018-10-09T23:04:58.343Z,99.90
2018-10-09T23:07:28.430Z,99.90
2018-10-09T23:09:58.584Z,99.90
2018-10-09T23:12:28.763Z,99.90
2018-10-09T23:14:58.791Z,99.90
2018-10-09T23:17:28.887Z,99.90
2018-10-09T23:19:59.093Z,99.90
2018-10-09T23:22:29.236Z,99.90
2018-10-09T23:24:59.270Z,99.90
2018-10-09T23:27:29.710Z,99.90
2018-10-09T23:29:59.788Z,99.90
2018-10-09T23:32:29.779Z,99.90
2018-10-09T23:34:59.812Z,99.90
2018-10-09T23:37:29.892Z,99.90
2018-10-09T23:39:59.993Z,99.90
2018-10-09T23:42:30.194Z,99.90
2018-10-09T23:45:00.520Z,99.90
2018-10-09T23:47:30.742Z,99.90
2018-10-09T23:50:00.909Z,99.90
2018-10-09T23:52:31.343Z,99.90
2018-10-09T23:55:01.593Z,99.90
2018-10-09T23:57:31.855Z,99.90
